createdAt,value
2017-12-22T00:00:02.682Z,7.5
2017-12-22T00:05:02.492Z,7.6
2017-12-22T00:10:03.121Z,7.5
2017-12-22T00:15:02.738Z,7.6
2017-12-22T00:20:02.425Z,7.6
2017-12-22T00:25:02.980Z,7.6
2017-12-22T00:30:02.553Z,7.6
2017-12-22T00:35:03.149Z,7.6
2017-12-22T00:40:02.849Z,7.6
2017-12-22T00:45:02.539Z,7.6
2017-12-22T00:50:03.237Z,7.6
2017-12-22T00:55:02.776Z,7.9
2017-12-22T01:00:03.232Z,7.9
2017-12-22T01:05:02.991Z,8.0
2017-12-22T01:10:02.589Z,8.0
2017-12-22T01:15:03.187Z,8.0
2017-12-22T01:20:02.819Z,8.0
2017-12-22T01:25:03.389Z,8.0
2017-12-22T01:30:02.981Z,8.0
2017-12-22T01:35:02.524Z,8.1
2017-12-22T01:40:03.078Z,8.0
2017-12-22T01:45:02.750Z,8.0
2017-12-22T01:50:03.331Z,8.1
2017-12-22T01:55:02.761Z,8.1
2017-12-22T02:00:03.226Z,8.0
2017-12-22T02:05:02.627Z,8.0
2017-12-22T02:10:03.203Z,8.0
2017-12-22T02:15:02.645Z,7.9
2017-12-22T02:20:03.280Z,8.0
2017-12-22T02:25:02.646Z,8.0
2017-12-22T02:30:03.332Z,8.0
2017-12-22T02:35:02.855Z,8.0
2017-12-22T02:40:03.340Z,8.0
2017-12-22T02:45:02.770Z,8.0
2017-12-22T02:50:03.325Z,8.1
2017-12-22T02:55:02.810Z,8.1
2017-12-22T03:00:02.438Z,8.1
2017-12-22T03:05:02.967Z,8.1
2017-12-22T03:10:02.822Z,8.1
2017-12-22T03:15:03.395Z,8.1
2017-12-22T03:20:02.966Z,8.0
2017-12-22T03:25:02.552Z,8.0
2017-12-22T03:30:03.117Z,8.0
2017-12-22T03:35:02.594Z,8.0
2017-12-22T03:40:03.208Z,8.0
2017-12-22T03:45:02.777Z,8.1
2017-12-22T03:50:03.305Z,8.1
2017-12-22T03:55:02.873Z,8.1
2017-12-22T04:00:02.575Z,8.1
2017-12-22T04:05:03.161Z,8.0
2017-12-22T04:10:02.736Z,8.0
2017-12-22T04:15:03.239Z,8.0
2017-12-22T04:20:02.775Z,8.1
2017-12-22T04:25:03.181Z,8.3
2017-12-22T04:30:02.806Z,8.3
2017-12-22T04:35:02.456Z,8.1
2017-12-22T04:40:03.120Z,8.1
2017-12-22T04:45:02.615Z,8.1
2017-12-22T04:50:03.217Z,8.1
2017-12-22T04:55:02.808Z,8.1
2017-12-22T05:00:02.776Z,8.3
2017-12-22T05:05:02.406Z,8.0
2017-12-22T05:10:02.918Z,8.0
2017-12-22T05:15:02.511Z,8.0
2017-12-22T05:20:02.997Z,8.0
2017-12-22T05:25:02.561Z,8.0
2017-12-22T05:30:02.943Z,8.0
2017-12-22T05:35:02.557Z,8.1
2017-12-22T05:40:03.077Z,8.0
2017-12-22T05:45:02.694Z,8.0
2017-12-22T05:50:03.219Z,8.1
2017-12-22T05:55:02.807Z,8.0
2017-12-22T06:00:03.294Z,8.1
2017-12-22T06:05:02.993Z,8.0
2017-12-22T06:10:02.479Z,8.0
2017-12-22T06:15:02.982Z,8.0
2017-12-22T06:20:03.017Z,8.0
2017-12-22T06:25:02.511Z,8.0
2017-12-22T06:30:03.060Z,8.1
2017-12-22T06:35:02.529Z,8.1
2017-12-22T06:40:03.045Z,8.1
2017-12-22T06:45:02.469Z,8.3
2017-12-22T06:50:03.014Z,8.5
2017-12-22T06:55:02.478Z,8.5
2017-12-22T07:00:03.039Z,8.6
2017-12-22T07:05:02.957Z,8.5
2017-12-22T07:10:02.596Z,8.3
2017-12-22T07:15:03.037Z,8.1
2017-12-22T07:20:02.682Z,8.3
2017-12-22T07:25:03.077Z,8.1
2017-12-22T07:30:02.516Z,8.1
2017-12-22T07:35:02.952Z,8.3
2017-12-22T07:40:02.628Z,8.3
2017-12-22T07:45:03.233Z,8.3
2017-12-22T07:50:02.817Z,8.1
2017-12-22T07:55:03.219Z,8.1
2017-12-22T08:00:02.872Z,8.3
2017-12-22T08:05:03.300Z,8.1
2017-12-22T08:10:03.070Z,8.1
2017-12-22T08:15:02.699Z,8.5
2017-12-22T08:20:03.127Z,8.6
2017-12-22T08:25:02.653Z,8.5
2017-12-22T08:30:03.504Z,8.3
2017-12-22T08:35:02.919Z,8.3
2017-12-22T08:40:02.395Z,8.5
2017-12-22T08:45:02.745Z,8.5
2017-12-22T08:50:03.156Z,8.5
2017-12-22T08:55:02.642Z,8.3
2017-12-22T09:00:03.088Z,8.5
2017-12-22T09:05:02.548Z,8.5
2017-12-22T09:10:03.365Z,8.5
2017-12-22T09:15:02.909Z,8.6
2017-12-22T09:20:02.507Z,8.6
2017-12-22T09:25:02.997Z,8.6
2017-12-22T09:30:02.591Z,8.8
2017-12-22T09:35:03.161Z,8.6
2017-12-22T09:40:02.807Z,8.8
2017-12-22T09:45:03.221Z,9.0
2017-12-22T09:50:02.830Z,8.8
2017-12-22T09:55:03.280Z,9.0
2017-12-22T10:00:02.963Z,9.0
2017-12-22T10:05:02.561Z,9.0
2017-12-22T10:10:03.246Z,9.0
2017-12-22T10:15:02.948Z,9.0
2017-12-22T10:20:02.456Z,9.1
2017-12-22T10:25:02.813Z,9.0
2017-12-22T10:30:03.241Z,9.1
2017-12-22T10:35:02.771Z,9.0
2017-12-22T10:40:02.507Z,9.0
2017-12-22T10:45:02.966Z,9.0
2017-12-22T10:50:03.372Z,9.3
2017-12-22T10:55:02.805Z,9.3
2017-12-22T11:00:02.468Z,9.6
2017-12-22T11:05:03.129Z,9.6
2017-12-22T11:10:02.777Z,9.3
2017-12-22T11:15:02.466Z,9.6
2017-12-22T11:20:03.039Z,9.8
2017-12-22T11:25:02.499Z,9.8
2017-12-22T11:30:02.972Z,9.8
2017-12-22T11:35:02.631Z,9.8
2017-12-22T11:40:03.113Z,9.8
2017-12-22T11:45:02.527Z,10.1
2017-12-22T11:50:03.209Z,9.8
2017-12-22T11:55:02.685Z,9.8
2017-12-22T12:00:03.247Z,10.0
2017-12-22T12:05:02.757Z,10.1
2017-12-22T12:10:03.317Z,10.1
2017-12-22T12:15:02.871Z,10.1
2017-12-22T12:20:02.393Z,10.1
2017-12-22T12:25:02.973Z,10.0
2017-12-22T12:30:02.430Z,10.0
2017-12-22T12:35:03.063Z,10.1
2017-12-22T12:40:02.754Z,10.0
2017-12-22T12:45:03.266Z,10.1
2017-12-22T12:50:02.832Z,9.8
2017-12-22T12:55:02.399Z,9.8
2017-12-22T13:00:02.870Z,9.8
2017-12-22T13:05:02.567Z,9.8
2017-12-22T13:10:03.206Z,9.8
2017-12-22T13:15:02.732Z,9.8
2017-12-22T13:20:02.461Z,10.0
2017-12-22T13:25:03.020Z,10.1
2017-12-22T13:30:02.680Z,10.0
2017-12-22T13:35:03.099Z,10.0
2017-12-22T13:40:02.555Z,10.0
2017-12-22T13:45:02.897Z,9.8
2017-12-22T13:50:02.419Z,10.0
2017-12-22T13:55:02.864Z,10.1
2017-12-22T14:00:03.379Z,9.8
2017-12-22T14:05:02.850Z,10.0
2017-12-22T14:10:03.380Z,10.0
2017-12-22T14:15:02.918Z,9.8
2017-12-22T14:20:02.608Z,9.8
2017-12-22T14:25:03.228Z,9.8
2017-12-22T14:30:02.648Z,9.8
2017-12-22T14:35:03.275Z,9.8
2017-12-22T14:40:03.016Z,9.8
2017-12-22T14:45:02.516Z,9.5
2017-12-22T14:50:03.228Z,9.6
2017-12-22T14:55:02.640Z,9.5
2017-12-22T15:00:03.198Z,9.3
2017-12-22T15:05:02.884Z,9.3
2017-12-22T15:10:02.482Z,9.3
2017-12-22T15:15:02.979Z,9.3
2017-12-22T15:20:02.606Z,9.1
2017-12-22T15:25:02.988Z,8.8
2017-12-22T15:30:02.570Z,8.8
2017-12-22T15:35:03.211Z,8.6
2017-12-22T15:40:02.949Z,8.6
2017-12-22T15:45:02.466Z,8.6
2017-12-22T15:50:03.179Z,8.5
2017-12-22T15:55:02.639Z,8.1
2017-12-22T16:00:03.232Z,8.1
2017-12-22T16:05:02.899Z,7.9
2017-12-22T16:10:02.700Z,7.9
2017-12-22T16:15:03.279Z,8.0
2017-12-22T16:20:02.921Z,7.9
2017-12-22T16:25:02.548Z,7.9
2017-12-22T16:30:02.963Z,7.9
2017-12-22T16:35:02.682Z,8.0
2017-12-22T16:40:03.366Z,8.1
2017-12-22T16:45:02.873Z,8.0
2017-12-22T16:50:02.509Z,8.0
2017-12-22T16:55:03.014Z,8.0
2017-12-22T17:00:02.588Z,8.1
2017-12-22T17:05:03.158Z,8.0
2017-12-22T17:10:02.876Z,8.0
2017-12-22T17:15:03.375Z,8.1
2017-12-22T17:20:02.726Z,8.0
2017-12-22T17:25:03.144Z,8.0
2017-12-22T17:30:02.709Z,8.0
2017-12-22T17:35:02.438Z,8.0
2017-12-22T17:40:03.028Z,8.0
2017-12-22T17:45:02.518Z,7.9
2017-12-22T17:50:03.077Z,8.0
2017-12-22T17:55:02.513Z,8.0
2017-12-22T18:00:03.097Z,8.3
2017-12-22T18:05:02.721Z,8.3
2017-12-22T18:10:02.375Z,8.0
2017-12-22T18:15:02.995Z,8.0
2017-12-22T18:20:02.667Z,8.3
2017-12-22T18:25:03.100Z,8.5
2017-12-22T18:30:02.563Z,8.3
2017-12-22T18:35:03.237Z,8.1
2017-12-22T18:40:02.899Z,8.3
2017-12-22T18:45:02.543Z,8.3
2017-12-22T18:50:03.118Z,8.1
2017-12-22T18:55:02.504Z,8.3
2017-12-22T19:00:03.176Z,8.3
2017-12-22T19:05:02.585Z,8.1
2017-12-22T19:10:03.285Z,8.1
2017-12-22T19:15:02.739Z,8.1
2017-12-22T19:20:03.271Z,8.1
2017-12-22T19:25:02.699Z,8.1
2017-12-22T19:30:03.243Z,8.3
2017-12-22T19:35:03.088Z,8.0
2017-12-22T19:40:02.531Z,7.9
2017-12-22T19:45:03.165Z,8.0
2017-12-22T19:50:02.801Z,7.6
2017-12-22T19:55:03.309Z,7.5
2017-12-22T20:00:02.876Z,7.6
2017-12-22T20:05:03.355Z,7.6
2017-12-22T20:10:02.867Z,7.6
2017-12-22T20:15:02.443Z,7.5
2017-12-22T20:20:02.974Z,7.6
2017-12-22T20:25:02.673Z,7.4
2017-12-22T20:30:03.137Z,7.0
2017-12-22T20:35:02.811Z,6.9
2017-12-22T20:40:03.309Z,6.6
2017-12-22T20:45:02.773Z,6.5
2017-12-22T20:50:02.482Z,6.5
2017-12-22T20:55:03.003Z,6.5
2017-12-22T21:00:02.611Z,6.5
2017-12-22T21:05:03.184Z,6.5
2017-12-22T21:10:02.799Z,6.6
2017-12-22T21:15:02.538Z,6.5
2017-12-22T21:20:02.978Z,6.4
2017-12-22T21:25:02.618Z,6.4
2017-12-22T21:30:03.245Z,6.4
2017-12-22T21:35:02.610Z,6.4
2017-12-22T21:40:03.049Z,6.4
2017-12-22T21:45:02.512Z,6.4
2017-12-22T21:50:03.232Z,6.5
2017-12-22T21:55:02.905Z,6.6
2017-12-22T22:00:02.620Z,6.6
2017-12-22T22:05:03.280Z,6.9
2017-12-22T22:10:03.038Z,6.9
2017-12-22T22:15:02.735Z,7.0
2017-12-22T22:20:02.398Z,6.9
2017-12-22T22:25:03.031Z,7.1
2017-12-22T22:30:02.808Z,7.1
2017-12-22T22:35:03.313Z,6.9
2017-12-22T22:40:03.052Z,6.9
2017-12-22T22:45:02.572Z,6.9
2017-12-22T22:50:02.949Z,6.9
2017-12-22T22:55:03.364Z,7.0
2017-12-22T23:00:02.980Z,7.0
2017-12-22T23:05:02.539Z,7.1
2017-12-22T23:10:03.034Z,7.1
2017-12-22T23:15:02.460Z,7.4
2017-12-22T23:20:03.037Z,7.5
2017-12-22T23:25:02.661Z,7.5
2017-12-22T23:30:03.291Z,7.6
2017-12-22T23:35:02.908Z,7.5
2017-12-22T23:40:02.380Z,7.6
2017-12-22T23:45:03.057Z,7.6
2017-12-22T23:50:02.729Z,7.9
2017-12-22T23:55:03.181Z,8.0
